Nearby METAR Reports

 

KOXC - Oxford/Waterbury, Connecticut, USA
Distance from station: SE 8mi, 12km
Updated: Sun, 19-Nov-2017 1:51pm EST
Mostly cloudy
Mostly cloudy
 Wind from W
Wind: W 15 mph , 24 km/h, Gust: 32 mph , 52 km/h
Temperature: 45°F , 7°C
Wind Chill: 38°F , 3°C
Dew Point: 28°F , -2°C
Humidity: 53%
Barometer: 29.44 inHg , 997 hPa
Clouds: Mostly cloudy
Visibility: 10 miles , 16 km
Cloud details: Mostly cloudy 4000 ft
2017/11/19 18:51 KOXC 191851Z 27013G28KT 10SM BKN040 07/M02 A2944 RMK AO2 PK WND 27029/1821 SLP982 T00671017
KDXR - Danbury, Connecticut, USA
Distance from station: SW 19mi, 30km
Updated: Sun, 19-Nov-2017 1:53pm EST
Few Clouds
Few Clouds
 Wind from W
Wind: W 21 mph , 33 km/h, Gust: 35 mph , 56 km/h
Temperature: 46°F , 8°C
Wind Chill: 38°F , 3°C
Dew Point: 28°F , -2°C
Humidity: 50%
Barometer: 29.47 inHg , 998 hPa
Clouds: Few Clouds
Visibility: 10 miles , 16 km
Cloud details: Few Clouds 4100 ft
2017/11/19 18:53 KDXR 191853Z 28018G30KT 10SM FEW041 08/M02 A2947 RMK AO2 PK WND 29034/1808 SLP979 T00781022
 
KMMK - Meriden, Connecticut, USA
Distance from station: E 20mi, 33km
Updated: Sun, 19-Nov-2017 1:53pm EST
Few Clouds
Few Clouds
 Wind from WNW
Wind: WNW 23 mph , 37 km/h, Gust: 35 mph , 56 km/h
Temperature: 48°F , 9°C
Wind Chill: 40°F , 4°C
Dew Point: 28°F , -2°C
Humidity: 46%
Barometer: 29.44 inHg , 997 hPa
Clouds: Few Clouds
Visibility: 10 miles , 16 km
Cloud details: Few Clouds 5000 ft
2017/11/19 18:53 KMMK 191853Z AUTO 29020G30KT 10SM FEW050 09/M02 A2944 RMK AO2 PK WND 30030/1849 SLP967 T00891022
KBDR - Bridgeport, Connecticut, USA
Distance from station: S 27mi, 44km
Updated: Sun, 19-Nov-2017 1:52pm EST
Few Clouds
Few Clouds
 Wind from WNW
Wind: WNW 22 mph , 35 km/h, Gust: 38 mph , 61 km/h
Temperature: 48°F , 9°C
Wind Chill: 41°F , 5°C
Dew Point: 28°F , -2°C
Humidity: 46%
Barometer: 29.45 inHg , 997.3 hPa
Clouds: Few Clouds
Visibility: 10 miles , 16 km
Cloud details: Few Clouds 4600 ft
2017/11/19 18:52 KBDR 191852Z 29019G33KT 10SM FEW046 09/M02 A2945 RMK AO2 PK WND 30039/1809 SLP974 T00941017
 
KHVN - New Haven/Tweed, Connecticut, USA
Distance from station: SE 27mi, 44km
Updated: Sun, 19-Nov-2017 1:53pm EST
Partly cloudy
Partly cloudy
 Wind from WNW
Wind: WNW 17 mph , 28 km/h, Gust: 31 mph , 50 km/h
Temperature: 50°F , 10°C
Wind Chill: 44°F , 7°C
Dew Point: 30°F , -1°C
Humidity: 47%
Barometer: 29.45 inHg , 997.3 hPa
Clouds: Partly cloudy
Visibility: 10 miles , 16 km
Cloud details: Partly cloudy 5000 ft
2017/11/19 18:53 KHVN 191853Z 29015G27KT 10SM SCT050 10/M01 A2945 RMK AO2 PK WND 31028/1824 SLP972 T01001011
KHFD - Hartford/Brainar, Connecticut, USA
Distance from station: ENE 32mi, 52km
Updated: Sun, 19-Nov-2017 1:53pm EST
Mostly cloudy
Mostly cloudy
 Wind from W
Wind: W 25 mph , 41 km/h, Gust: 38 mph , 61 km/h
Temperature: 48°F , 9°C
Wind Chill: 40°F , 4°C
Dew Point: 28°F , -2°C
Humidity: 46%
Barometer: 29.43 inHg , 996.6 hPa
Clouds: Mostly cloudy
Visibility: 10 miles , 16 km
Cloud details: Mostly cloudy 5000 ft
2017/11/19 18:53 KHFD 191853Z 28022G33KT 10SM BKN050 09/M02 A2943 RMK AO2 PK WND 29033/1853 SLP966 T00941022
 
KPOU - Poughkeepsie, New York, USA
Distance from station: W 35mi, 56km
Updated: Sun, 19-Nov-2017 1:53pm EST
Partly cloudy
Partly cloudy
 Wind from W
Wind: W 18 mph , 30 km/h, Gust: 32 mph , 52 km/h
Temperature: 45°F , 7°C
Wind Chill: 37°F , 3°C
Dew Point: 28°F , -2°C
Humidity: 53%
Barometer: 29.52 inHg , 999.7 hPa
Clouds: Partly cloudy
Visibility: 10 miles , 16 km
Cloud details: Partly cloudy 4400 ft
2017/11/19 18:53 KPOU 191853Z 27016G28KT 10SM SCT044 07/M02 A2952 RMK AO2 PK WND 27034/1806 SLP993 T00671022
KBDL - Windsor Locks, Connecticut, USA
Distance from station: NE 38mi, 62km
Updated: Sun, 19-Nov-2017 1:51pm EST
Mostly cloudy
Mostly cloudy
 Wind from WNW
Wind: WNW 26 mph , 43 km/h, Gust: 37 mph , 59 km/h
Temperature: 46°F , 8°C
Wind Chill: 37°F , 3°C
Dew Point: 28°F , -2°C
Humidity: 50%
Barometer: 29.42 inHg , 996.3 hPa
Clouds: Mostly cloudy
Visibility: 10 miles , 16 km
Cloud details: Mostly cloudy 4900 ft
Mostly cloudy 5500 ft
2017/11/19 18:51 KBDL 191851Z 30023G32KT 10SM BKN049 BKN055 08/M02 A2942 RMK AO2 PK WND 30032/1851 SLP963 T00831022
 
KSNC - Chester, Connecticut, USA
Distance from station: ESE 39mi, 63km
Updated: Sun, 19-Nov-2017 2:15pm EST
Partly cloudy
Partly cloudy
 Wind from WNW
Wind: WNW 14 mph , 22 km/h, Gust: 26 mph , 43 km/h
Temperature: 50°F , 10°C
Wind Chill: 45°F , 7°C
Dew Point: 28°F , -2°C
Humidity: 43%
Barometer: 29.42 inHg , 996.3 hPa
Clouds: Partly cloudy
Visibility: 10 miles , 16 km
Cloud details: Partly cloudy 5000 ft
2017/11/19 19:15 KSNC 191915Z AUTO 29012G23KT 270V330 10SM SCT050 10/M02 A2942 RMK AO2
KHPN - White Plains, New York, USA
Distance from station: SW 42mi, 67km
Updated: Sun, 19-Nov-2017 1:56pm EST
Mostly cloudy
Mostly cloudy
 Wind from NW
Wind: NW 26 mph , 43 km/h, Gust: 36 mph , 57 km/h
Temperature: 46°F , 8°C
Wind Chill: 37°F , 3°C
Dew Point: 30°F , -1°C
Humidity: 53%
Barometer: 29.50 inHg , 999 hPa
Clouds: Mostly cloudy
Visibility: 10 miles , 16 km
Cloud details: Mostly cloudy 4100 ft
2017/11/19 18:56 KHPN 191856Z 32023G31KT 10SM BKN041 08/M01 A2950 RMK AO2 PK WND 31039/1836 SLP991 T00781006 $
 
KSWF - Newburgh/Stewart, New York, USA
Distance from station: W 45mi, 72km
Updated: Sun, 19-Nov-2017 1:45pm EST
Mostly cloudy
Mostly cloudy
 Wind from WNW
Wind: WNW 21 mph , 33 km/h, Gust: 32 mph , 52 km/h
Temperature: 43°F , 6°C
Wind Chill: 34°F , 1°C
Dew Point: 32°F , 0°C
Humidity: 66%
Barometer: 29.54 inHg , 1000.3 hPa
Clouds: Mostly cloudy
Visibility: 20 miles , 32 km
Cloud details: Mostly cloudy 3500 ft
2017/11/19 18:45 KSWF 191845Z 29018G28KT 20SM BKN035 06/00 A2954
KBAF - Westfield, Massachusetts, USA
Distance from station: NNE 50mi, 80km
Updated: Sun, 19-Nov-2017 1:53pm EST
Overcast
Overcast
 Wind from NW
Wind: NW 20 mph , 31 km/h, Gust: 26 mph , 43 km/h
Temperature: 46°F , 8°C
Wind Chill: 38°F , 3°C
Dew Point: 28°F , -2°C
Humidity: 50%
Barometer: 29.42 inHg , 996.3 hPa
Clouds: Overcast
Visibility: 10 miles , 16 km
Cloud details: Overcast 4200 ft
2017/11/19 18:53 KBAF 191853Z 32017G23KT 10SM OVC042 08/M02 A2942 RMK AO2 PK WND 31036/1833 SLP965 T00781022